Prescot, United Kingdom
Current Conditions -  °F | °C
As of 9:50 AM on Saturday 29 Nov 2014 (Local Time) from EGGP Reporting Station
Clear Clear  
Wind Chill: 45°   Ceiling: Unl
Heat Index: 48°   Visibility: 4mi
Dew Point: 48°   Wind: 7mph
Humidity: 100%   Direction: 120°ESE
Pressure: 29.83"   Gusts: NA
Location:  53.43°N, 2.8°W
Report Text: EGGP 290950Z 12006KT 6000 NSC 09/09 Q1010
Loading
Personal Weather Stations






























Interactive Weather Map New forecast layout! Learn more

10-Day Weather Forecast

Advertisements
Track Severe Weather on mobile